sensor_id;sensor_type;location;lat;lon;timestamp;P1;durP1;ratioP1;P2;durP2;ratioP2
80400;SDS011;69727;53.132;8.230;2024-03-25T00:02:06;7.97;;;1.67;;
80400;SDS011;69727;53.132;8.230;2024-03-25T00:04:31;10.87;;;2.63;;
80400;SDS011;69727;53.132;8.230;2024-03-25T00:06:56;8.17;;;2.27;;
80400;SDS011;69727;53.132;8.230;2024-03-25T00:09:23;12.65;;;2.35;;
80400;SDS011;69727;53.132;8.230;2024-03-25T00:11:49;9.32;;;2.65;;
80400;SDS011;69727;53.132;8.230;2024-03-25T00:14:19;10.45;;;2.70;;
80400;SDS011;69727;53.132;8.230;2024-03-25T00:16:45;8.18;;;2.22;;
80400;SDS011;69727;53.132;8.230;2024-03-25T00:19:10;9.43;;;2.63;;
80400;SDS011;69727;53.132;8.230;2024-03-25T00:21:36;7.40;;;2.08;;
80400;SDS011;69727;53.132;8.230;2024-03-25T00:24:01;8.07;;;2.00;;
80400;SDS011;69727;53.132;8.230;2024-03-25T00:26:27;9.82;;;2.40;;
80400;SDS011;69727;53.132;8.230;2024-03-25T00:28:52;7.30;;;2.38;;
80400;SDS011;69727;53.132;8.230;2024-03-25T00:31:18;8.50;;;2.33;;
80400;SDS011;69727;53.132;8.230;2024-03-25T00:33:44;10.93;;;2.35;;
80400;SDS011;69727;53.132;8.230;2024-03-25T00:36:10;9.82;;;2.20;;
80400;SDS011;69727;53.132;8.230;2024-03-25T00:38:35;9.13;;;2.45;;
80400;SDS011;69727;53.132;8.230;2024-03-25T00:41:01;10.65;;;2.90;;
80400;SDS011;69727;53.132;8.230;2024-03-25T00:43:27;14.95;;;2.90;;
80400;SDS011;69727;53.132;8.230;2024-03-25T00:45:52;10.67;;;2.10;;
80400;SDS011;69727;53.132;8.230;2024-03-25T00:48:17;11.40;;;2.17;;
80400;SDS011;69727;53.132;8.230;2024-03-25T00:50:43;9.87;;;2.07;;
80400;SDS011;69727;53.132;8.230;2024-03-25T00:53:08;10.43;;;1.97;;
80400;SDS011;69727;53.132;8.230;2024-03-25T00:55:34;8.07;;;2.15;;
80400;SDS011;69727;53.132;8.230;2024-03-25T00:58:01;7.35;;;2.22;;
80400;SDS011;69727;53.132;8.230;2024-03-25T01:00:27;18.35;;;2.80;;
80400;SDS011;69727;53.132;8.230;2024-03-25T01:02:52;10.23;;;2.00;;
80400;SDS011;69727;53.132;8.230;2024-03-25T01:05:18;10.37;;;2.47;;
80400;SDS011;69727;53.132;8.230;2024-03-25T01:07:43;5.93;;;1.97;;
80400;SDS011;69727;53.132;8.230;2024-03-25T01:10:09;6.28;;;1.77;;
80400;SDS011;69727;53.132;8.230;2024-03-25T01:12:34;9.68;;;2.55;;
80400;SDS011;69727;53.132;8.230;2024-03-25T01:15:00;10.52;;;2.75;;
80400;SDS011;69727;53.132;8.230;2024-03-25T01:17:27;4.63;;;1.85;;
80400;SDS011;69727;53.132;8.230;2024-03-25T01:19:52;6.68;;;1.92;;
80400;SDS011;69727;53.132;8.230;2024-03-25T01:22:18;8.77;;;2.17;;
80400;SDS011;69727;53.132;8.230;2024-03-25T01:24:43;9.13;;;2.10;;
80400;SDS011;69727;53.132;8.230;2024-03-25T01:27:09;8.65;;;2.00;;
80400;SDS011;69727;53.132;8.230;2024-03-25T01:29:34;14.33;;;1.90;;
80400;SDS011;69727;53.132;8.230;2024-03-25T01:32:00;7.32;;;2.10;;
80400;SDS011;69727;53.132;8.230;2024-03-25T01:34:27;6.95;;;2.15;;
80400;SDS011;69727;53.132;8.230;2024-03-25T01:36:52;9.17;;;1.97;;
80400;SDS011;69727;53.132;8.230;2024-03-25T01:39:18;9.43;;;2.65;;
80400;SDS011;69727;53.132;8.230;2024-03-25T01:41:44;11.57;;;2.20;;
80400;SDS011;69727;53.132;8.230;2024-03-25T01:44:10;9.77;;;2.50;;
80400;SDS011;69727;53.132;8.230;2024-03-25T01:46:35;12.18;;;2.65;;
80400;SDS011;69727;53.132;8.230;2024-03-25T01:49:01;7.50;;;1.98;;
80400;SDS011;69727;53.132;8.230;2024-03-25T01:51:26;12.60;;;2.03;;
80400;SDS011;69727;53.132;8.230;2024-03-25T01:53:53;10.60;;;2.60;;
80400;SDS011;69727;53.132;8.230;2024-03-25T01:56:21;11.35;;;2.28;;
80400;SDS011;69727;53.132;8.230;2024-03-25T01:58:49;10.90;;;2.72;;
80400;SDS011;69727;53.132;8.230;2024-03-25T02:01:15;12.80;;;2.30;;
80400;SDS011;69727;53.132;8.230;2024-03-25T02:03:41;8.38;;;2.58;;
80400;SDS011;69727;53.132;8.230;2024-03-25T02:06:09;11.43;;;1.92;;
80400;SDS011;69727;53.132;8.230;2024-03-25T02:08:40;6.65;;;2.05;;
80400;SDS011;69727;53.132;8.230;2024-03-25T02:11:07;6.60;;;2.40;;
80400;SDS011;69727;53.132;8.230;2024-03-25T02:13:34;6.57;;;1.95;;
80400;SDS011;69727;53.132;8.230;2024-03-25T02:16:00;6.57;;;1.77;;
80400;SDS011;69727;53.132;8.230;2024-03-25T02:18:25;8.48;;;1.83;;
80400;SDS011;69727;53.132;8.230;2024-03-25T02:20:51;5.45;;;1.67;;
80400;SDS011;69727;53.132;8.230;2024-03-25T02:23:16;9.45;;;2.13;;
80400;SDS011;69727;53.132;8.230;2024-03-25T02:25:42;15.35;;;3.10;;
80400;SDS011;69727;53.132;8.230;2024-03-25T02:28:08;14.07;;;2.40;;
80400;SDS011;69727;53.132;8.230;2024-03-25T02:30:34;6.60;;;2.33;;
80400;SDS011;69727;53.132;8.230;2024-03-25T02:33:01;10.68;;;2.00;;
80400;SDS011;69727;53.132;8.230;2024-03-25T02:35:27;6.72;;;1.90;;
80400;SDS011;69727;53.132;8.230;2024-03-25T02:37:53;6.30;;;1.65;;
80400;SDS011;69727;53.132;8.230;2024-03-25T02:40:18;11.70;;;2.28;;
80400;SDS011;69727;53.132;8.230;2024-03-25T02:42:45;12.25;;;2.03;;
80400;SDS011;69727;53.132;8.230;2024-03-25T02:45:11;12.07;;;2.67;;
80400;SDS011;69727;53.132;8.230;2024-03-25T02:47:37;12.27;;;2.25;;
80400;SDS011;69727;53.132;8.230;2024-03-25T02:50:02;12.45;;;2.00;;
80400;SDS011;69727;53.132;8.230;2024-03-25T02:52:28;11.10;;;2.30;;
80400;SDS011;69727;53.132;8.230;2024-03-25T02:54:53;10.87;;;2.50;;
80400;SDS011;69727;53.132;8.230;2024-03-25T02:57:19;10.55;;;2.35;;
80400;SDS011;69727;53.132;8.230;2024-03-25T02:59:45;11.98;;;2.33;;
80400;SDS011;69727;53.132;8.230;2024-03-25T03:02:10;9.03;;;2.20;;
80400;SDS011;69727;53.132;8.230;2024-03-25T03:04:36;8.90;;;2.40;;
80400;SDS011;69727;53.132;8.230;2024-03-25T03:07:01;8.15;;;2.63;;
80400;SDS011;69727;53.132;8.230;2024-03-25T03:09:27;11.68;;;2.53;;
80400;SDS011;69727;53.132;8.230;2024-03-25T03:11:52;9.97;;;2.43;;
80400;SDS011;69727;53.132;8.230;2024-03-25T03:14:17;18.63;;;2.80;;
80400;SDS011;69727;53.132;8.230;2024-03-25T03:16:43;11.80;;;2.33;;
80400;SDS011;69727;53.132;8.230;2024-03-25T03:19:08;8.77;;;2.40;;
80400;SDS011;69727;53.132;8.230;2024-03-25T03:21:34;10.90;;;1.95;;
80400;SDS011;69727;53.132;8.230;2024-03-25T03:23:59;7.60;;;2.33;;
80400;SDS011;69727;53.132;8.230;2024-03-25T03:26:24;15.30;;;2.70;;
80400;SDS011;69727;53.132;8.230;2024-03-25T03:28:53;14.45;;;2.97;;
80400;SDS011;69727;53.132;8.230;2024-03-25T03:31:19;10.77;;;2.17;;
80400;SDS011;69727;53.132;8.230;2024-03-25T03:33:46;11.27;;;2.58;;
80400;SDS011;69727;53.132;8.230;2024-03-25T03:36:12;11.13;;;2.10;;
80400;SDS011;69727;53.132;8.230;2024-03-25T03:38:38;13.85;;;2.42;;
80400;SDS011;69727;53.132;8.230;2024-03-25T03:41:03;10.77;;;1.93;;
80400;SDS011;69727;53.132;8.230;2024-03-25T03:43:29;10.88;;;2.38;;
80400;SDS011;69727;53.132;8.230;2024-03-25T03:45:54;16.02;;;2.45;;
80400;SDS011;69727;53.132;8.230;2024-03-25T03:48:20;11.73;;;2.55;;
80400;SDS011;69727;53.132;8.230;2024-03-25T03:50:45;12.57;;;2.25;;
80400;SDS011;69727;53.132;8.230;2024-03-25T03:53:11;13.13;;;2.13;;
80400;SDS011;69727;53.132;8.230;2024-03-25T03:55:37;10.10;;;2.00;;
80400;SDS011;69727;53.132;8.230;2024-03-25T03:58:02;6.97;;;2.03;;
80400;SDS011;69727;53.132;8.230;2024-03-25T04:00:28;10.57;;;2.00;;
80400;SDS011;69727;53.132;8.230;2024-03-25T04:02:54;7.18;;;1.80;;
80400;SDS011;69727;53.132;8.230;2024-03-25T04:05:19;10.07;;;1.80;;
80400;SDS011;69727;53.132;8.230;2024-03-25T04:07:45;14.50;;;1.88;;
80400;SDS011;69727;53.132;8.230;2024-03-25T04:10:10;6.97;;;1.90;;
80400;SDS011;69727;53.132;8.230;2024-03-25T04:12:36;8.65;;;2.10;;
80400;SDS011;69727;53.132;8.230;2024-03-25T04:15:02;8.88;;;1.45;;
80400;SDS011;69727;53.132;8.230;2024-03-25T04:17:30;8.32;;;2.67;;
80400;SDS011;69727;53.132;8.230;2024-03-25T04:19:58;15.30;;;2.17;;
80400;SDS011;69727;53.132;8.230;2024-03-25T04:22:25;10.93;;;2.15;;
80400;SDS011;69727;53.132;8.230;2024-03-25T04:24:51;10.35;;;2.75;;
80400;SDS011;69727;53.132;8.230;2024-03-25T04:27:16;9.95;;;1.95;;
80400;SDS011;69727;53.132;8.230;2024-03-25T04:29:41;8.73;;;2.15;;
80400;SDS011;69727;53.132;8.230;2024-03-25T04:32:07;12.40;;;2.53;;
80400;SDS011;69727;53.132;8.230;2024-03-25T04:34:33;14.57;;;2.30;;
80400;SDS011;69727;53.132;8.230;2024-03-25T04:36:59;12.20;;;2.57;;
80400;SDS011;69727;53.132;8.230;2024-03-25T04:39:24;8.57;;;1.98;;
80400;SDS011;69727;53.132;8.230;2024-03-25T04:41:50;13.43;;;2.77;;
80400;SDS011;69727;53.132;8.230;2024-03-25T04:44:15;9.33;;;1.83;;
80400;SDS011;69727;53.132;8.230;2024-03-25T04:46:43;16.75;;;2.42;;
80400;SDS011;69727;53.132;8.230;2024-03-25T04:49:08;11.00;;;2.17;;
80400;SDS011;69727;53.132;8.230;2024-03-25T04:51:33;7.10;;;2.10;;
80400;SDS011;69727;53.132;8.230;2024-03-25T04:53:59;12.52;;;2.38;;
80400;SDS011;69727;53.132;8.230;2024-03-25T04:56:25;10.50;;;2.50;;
80400;SDS011;69727;53.132;8.230;2024-03-25T04:58:50;12.30;;;2.33;;
80400;SDS011;69727;53.132;8.230;2024-03-25T05:01:15;15.43;;;2.58;;
80400;SDS011;69727;53.132;8.230;2024-03-25T05:03:42;15.85;;;2.53;;
80400;SDS011;69727;53.132;8.230;2024-03-25T05:06:07;16.03;;;2.73;;
80400;SDS011;69727;53.132;8.230;2024-03-25T05:08:36;10.57;;;2.10;;
80400;SDS011;69727;53.132;8.230;2024-03-25T05:11:01;17.38;;;3.03;;
80400;SDS011;69727;53.132;8.230;2024-03-25T05:13:27;6.67;;;2.33;;
80400;SDS011;69727;53.132;8.230;2024-03-25T05:15:52;15.67;;;3.67;;
80400;SDS011;69727;53.132;8.230;2024-03-25T05:18:18;15.63;;;2.65;;
80400;SDS011;69727;53.132;8.230;2024-03-25T05:20:44;13.48;;;2.55;;
80400;SDS011;69727;53.132;8.230;2024-03-25T05:23:10;11.70;;;2.78;;
80400;SDS011;69727;53.132;8.230;2024-03-25T05:25:36;9.45;;;2.53;;
80400;SDS011;69727;53.132;8.230;2024-03-25T05:28:01;10.07;;;2.63;;
80400;SDS011;69727;53.132;8.230;2024-03-25T05:30:27;11.90;;;2.83;;
80400;SDS011;69727;53.132;8.230;2024-03-25T05:32:52;12.00;;;2.60;;
80400;SDS011;69727;53.132;8.230;2024-03-25T05:35:18;9.50;;;2.87;;
80400;SDS011;69727;53.132;8.230;2024-03-25T05:37:43;7.80;;;2.17;;
80400;SDS011;69727;53.132;8.230;2024-03-25T05:40:09;10.38;;;2.20;;
80400;SDS011;69727;53.132;8.230;2024-03-25T05:42:36;12.18;;;2.33;;
80400;SDS011;69727;53.132;8.230;2024-03-25T05:45:02;12.00;;;2.13;;
80400;SDS011;69727;53.132;8.230;2024-03-25T05:47:28;10.48;;;2.67;;
80400;SDS011;69727;53.132;8.230;2024-03-25T05:49:54;13.52;;;2.50;;
80400;SDS011;69727;53.132;8.230;2024-03-25T05:52:19;13.07;;;2.53;;
80400;SDS011;69727;53.132;8.230;2024-03-25T05:54:45;13.17;;;2.90;;
80400;SDS011;69727;53.132;8.230;2024-03-25T05:57:10;8.37;;;2.60;;
80400;SDS011;69727;53.132;8.230;2024-03-25T05:59:35;9.70;;;2.30;;
80400;SDS011;69727;53.132;8.230;2024-03-25T06:02:01;12.03;;;2.67;;
80400;SDS011;69727;53.132;8.230;2024-03-25T06:04:26;10.05;;;2.70;;
80400;SDS011;69727;53.132;8.230;2024-03-25T06:06:52;9.65;;;2.42;;
80400;SDS011;69727;53.132;8.230;2024-03-25T06:09:17;14.20;;;2.80;;
80400;SDS011;69727;53.132;8.230;2024-03-25T06:11:42;14.77;;;3.37;;
80400;SDS011;69727;53.132;8.230;2024-03-25T06:14:08;12.25;;;2.50;;
80400;SDS011;69727;53.132;8.230;2024-03-25T06:16:33;12.93;;;2.37;;
80400;SDS011;69727;53.132;8.230;2024-03-25T06:18:58;14.27;;;3.40;;
80400;SDS011;69727;53.132;8.230;2024-03-25T06:21:24;12.23;;;2.07;;
80400;SDS011;69727;53.132;8.230;2024-03-25T06:23:49;13.93;;;2.87;;
80400;SDS011;69727;53.132;8.230;2024-03-25T06:26:15;12.32;;;2.15;;
80400;SDS011;69727;53.132;8.230;2024-03-25T06:28:40;9.83;;;2.63;;
80400;SDS011;69727;53.132;8.230;2024-03-25T06:31:05;10.60;;;2.07;;
80400;SDS011;69727;53.132;8.230;2024-03-25T06:33:49;13.82;;;2.70;;
80400;SDS011;69727;53.132;8.230;2024-03-25T06:36:33;16.45;;;2.92;;
80400;SDS011;69727;53.132;8.230;2024-03-25T06:39:02;9.10;;;2.45;;
80400;SDS011;69727;53.132;8.230;2024-03-25T06:41:28;11.77;;;2.90;;
80400;SDS011;69727;53.132;8.230;2024-03-25T06:43:53;13.00;;;3.07;;
80400;SDS011;69727;53.132;8.230;2024-03-25T06:46:18;14.73;;;2.20;;
80400;SDS011;69727;53.132;8.230;2024-03-25T06:48:44;12.83;;;2.13;;
80400;SDS011;69727;53.132;8.230;2024-03-25T06:51:09;21.88;;;2.63;;
80400;SDS011;69727;53.132;8.230;2024-03-25T06:53:35;15.73;;;2.28;;
80400;SDS011;69727;53.132;8.230;2024-03-25T06:56:00;9.93;;;2.85;;
80400;SDS011;69727;53.132;8.230;2024-03-25T06:58:26;11.13;;;1.77;;
80400;SDS011;69727;53.132;8.230;2024-03-25T07:00:53;13.57;;;2.97;;
80400;SDS011;69727;53.132;8.230;2024-03-25T07:03:20;9.43;;;2.85;;
80400;SDS011;69727;53.132;8.230;2024-03-25T07:05:48;13.00;;;2.22;;
80400;SDS011;69727;53.132;8.230;2024-03-25T07:10:42;9.10;;;2.00;;
80400;SDS011;69727;53.132;8.230;2024-03-25T07:13:08;12.13;;;2.33;;
80400;SDS011;69727;53.132;8.230;2024-03-25T07:15:33;14.43;;;2.15;;
80400;SDS011;69727;53.132;8.230;2024-03-25T07:17:59;10.73;;;2.30;;
80400;SDS011;69727;53.132;8.230;2024-03-25T07:20:25;11.27;;;2.00;;
80400;SDS011;69727;53.132;8.230;2024-03-25T07:22:52;8.95;;;1.77;;
80400;SDS011;69727;53.132;8.230;2024-03-25T07:25:20;11.35;;;1.75;;
80400;SDS011;69727;53.132;8.230;2024-03-25T07:30:15;10.77;;;2.17;;
80400;SDS011;69727;53.132;8.230;2024-03-25T07:32:41;9.40;;;2.05;;
80400;SDS011;69727;53.132;8.230;2024-03-25T07:35:06;8.43;;;1.85;;
80400;SDS011;69727;53.132;8.230;2024-03-25T07:37:33;7.18;;;1.45;;
80400;SDS011;69727;53.132;8.230;2024-03-25T07:39:59;11.15;;;1.92;;
80400;SDS011;69727;53.132;8.230;2024-03-25T07:42:24;9.15;;;1.70;;
80400;SDS011;69727;53.132;8.230;2024-03-25T07:44:50;8.00;;;1.92;;
80400;SDS011;69727;53.132;8.230;2024-03-25T07:47:15;9.60;;;1.67;;
80400;SDS011;69727;53.132;8.230;2024-03-25T07:49:41;12.07;;;1.90;;
80400;SDS011;69727;53.132;8.230;2024-03-25T07:52:06;9.18;;;3.50;;
80400;SDS011;69727;53.132;8.230;2024-03-25T07:54:32;8.57;;;1.58;;
80400;SDS011;69727;53.132;8.230;2024-03-25T07:56:58;14.30;;;1.95;;
80400;SDS011;69727;53.132;8.230;2024-03-25T07:59:23;7.35;;;1.60;;
80400;SDS011;69727;53.132;8.230;2024-03-25T08:01:48;8.60;;;1.98;;
80400;SDS011;69727;53.132;8.230;2024-03-25T08:04:14;4.78;;;1.23;;
80400;SDS011;69727;53.132;8.230;2024-03-25T08:06:40;7.43;;;1.45;;
80400;SDS011;69727;53.132;8.230;2024-03-25T08:09:05;9.40;;;2.27;;
80400;SDS011;69727;53.132;8.230;2024-03-25T08:11:31;9.13;;;1.42;;
80400;SDS011;69727;53.132;8.230;2024-03-25T08:13:57;8.57;;;1.58;;
80400;SDS011;69727;53.132;8.230;2024-03-25T08:16:22;7.47;;;1.27;;
80400;SDS011;69727;53.132;8.230;2024-03-25T08:18:48;6.47;;;1.30;;
80400;SDS011;69727;53.132;8.230;2024-03-25T08:21:14;5.28;;;1.30;;
80400;SDS011;69727;53.132;8.230;2024-03-25T08:23:39;4.90;;;1.17;;
80400;SDS011;69727;53.132;8.230;2024-03-25T08:26:05;8.23;;;1.38;;
80400;SDS011;69727;53.132;8.230;2024-03-25T08:28:31;6.90;;;1.33;;
80400;SDS011;69727;53.132;8.230;2024-03-25T08:30:56;9.07;;;1.33;;
80400;SDS011;69727;53.132;8.230;2024-03-25T08:33:22;9.82;;;1.40;;
80400;SDS011;69727;53.132;8.230;2024-03-25T08:35:47;10.07;;;1.70;;
80400;SDS011;69727;53.132;8.230;2024-03-25T08:38:13;8.90;;;1.50;;
80400;SDS011;69727;53.132;8.230;2024-03-25T08:40:38;10.57;;;1.90;;
80400;SDS011;69727;53.132;8.230;2024-03-25T08:43:05;6.35;;;1.50;;
80400;SDS011;69727;53.132;8.230;2024-03-25T08:45:31;7.47;;;1.65;;
80400;SDS011;69727;53.132;8.230;2024-03-25T08:47:57;13.68;;;1.90;;
80400;SDS011;69727;53.132;8.230;2024-03-25T08:50:22;7.10;;;1.48;;
80400;SDS011;69727;53.132;8.230;2024-03-25T08:52:48;7.70;;;1.27;;
80400;SDS011;69727;53.132;8.230;2024-03-25T08:55:13;7.30;;;1.50;;
80400;SDS011;69727;53.132;8.230;2024-03-25T08:57:38;7.80;;;1.60;;
80400;SDS011;69727;53.132;8.230;2024-03-25T09:00:04;5.05;;;1.17;;
80400;SDS011;69727;53.132;8.230;2024-03-25T09:02:35;5.75;;;1.50;;
80400;SDS011;69727;53.132;8.230;2024-03-25T09:05:01;5.63;;;2.40;;
80400;SDS011;69727;53.132;8.230;2024-03-25T09:07:28;8.70;;;1.67;;
80400;SDS011;69727;53.132;8.230;2024-03-25T09:09:53;8.40;;;1.67;;
80400;SDS011;69727;53.132;8.230;2024-03-25T09:12:37;6.20;;;1.40;;
80400;SDS011;69727;53.132;8.230;2024-03-25T09:15:02;8.17;;;1.63;;
80400;SDS011;69727;53.132;8.230;2024-03-25T09:17:28;7.60;;;1.35;;
80400;SDS011;69727;53.132;8.230;2024-03-25T09:19:54;4.97;;;1.20;;
80400;SDS011;69727;53.132;8.230;2024-03-25T09:22:19;10.03;;;1.40;;
80400;SDS011;69727;53.132;8.230;2024-03-25T09:24:44;9.03;;;1.50;;
80400;SDS011;69727;53.132;8.230;2024-03-25T09:27:10;6.10;;;1.50;;
80400;SDS011;69727;53.132;8.230;2024-03-25T09:29:35;5.40;;;1.55;;
80400;SDS011;69727;53.132;8.230;2024-03-25T09:32:01;9.90;;;1.80;;
80400;SDS011;69727;53.132;8.230;2024-03-25T09:34:28;5.88;;;1.50;;
80400;SDS011;69727;53.132;8.230;2024-03-25T09:36:53;8.67;;;1.43;;
80400;SDS011;69727;53.132;8.230;2024-03-25T09:39:18;8.10;;;1.80;;
80400;SDS011;69727;53.132;8.230;2024-03-25T09:41:44;8.00;;;1.23;;
80400;SDS011;69727;53.132;8.230;2024-03-25T09:44:12;7.63;;;1.20;;
80400;SDS011;69727;53.132;8.230;2024-03-25T09:46:37;4.30;;;0.85;;
80400;SDS011;69727;53.132;8.230;2024-03-25T09:49:03;5.50;;;1.75;;
80400;SDS011;69727;53.132;8.230;2024-03-25T09:51:30;4.88;;;1.15;;
80400;SDS011;69727;53.132;8.230;2024-03-25T09:53:57;6.15;;;1.27;;
80400;SDS011;69727;53.132;8.230;2024-03-25T09:56:22;5.97;;;1.65;;
80400;SDS011;69727;53.132;8.230;2024-03-25T09:58:48;6.07;;;1.17;;
80400;SDS011;69727;53.132;8.230;2024-03-25T10:01:14;5.47;;;1.00;;
80400;SDS011;69727;53.132;8.230;2024-03-25T10:03:39;7.07;;;1.77;;
80400;SDS011;69727;53.132;8.230;2024-03-25T10:06:05;5.15;;;0.75;;
80400;SDS011;69727;53.132;8.230;2024-03-25T10:08:33;5.63;;;1.67;;
80400;SDS011;69727;53.132;8.230;2024-03-25T10:10:58;3.97;;;1.13;;
80400;SDS011;69727;53.132;8.230;2024-03-25T10:13:24;6.20;;;1.45;;
80400;SDS011;69727;53.132;8.230;2024-03-25T10:15:51;6.03;;;1.23;;
80400;SDS011;69727;53.132;8.230;2024-03-25T10:18:17;5.63;;;1.70;;
80400;SDS011;69727;53.132;8.230;2024-03-25T10:20:51;6.18;;;1.10;;
80400;SDS011;69727;53.132;8.230;2024-03-25T10:23:20;4.97;;;0.80;;
80400;SDS011;69727;53.132;8.230;2024-03-25T10:25:47;7.47;;;1.98;;
80400;SDS011;69727;53.132;8.230;2024-03-25T10:28:13;6.32;;;1.23;;
80400;SDS011;69727;53.132;8.230;2024-03-25T10:30:39;3.88;;;1.20;;
80400;SDS011;69727;53.132;8.230;2024-03-25T10:33:06;9.27;;;1.35;;
80400;SDS011;69727;53.132;8.230;2024-03-25T10:35:33;6.13;;;1.10;;
80400;SDS011;69727;53.132;8.230;2024-03-25T10:38:05;5.43;;;1.23;;
80400;SDS011;69727;53.132;8.230;2024-03-25T10:40:36;9.20;;;1.50;;
80400;SDS011;69727;53.132;8.230;2024-03-25T10:43:06;6.97;;;1.90;;
80400;SDS011;69727;53.132;8.230;2024-03-25T10:45:34;7.75;;;1.70;;
80400;SDS011;69727;53.132;8.230;2024-03-25T10:48:12;9.20;;;1.30;;
80400;SDS011;69727;53.132;8.230;2024-03-25T10:50:42;4.60;;;1.48;;
80400;SDS011;69727;53.132;8.230;2024-03-25T10:53:08;7.10;;;1.00;;
80400;SDS011;69727;53.132;8.230;2024-03-25T10:55:36;5.30;;;1.27;;
80400;SDS011;69727;53.132;8.230;2024-03-25T10:58:03;4.65;;;1.10;;
80400;SDS011;69727;53.132;8.230;2024-03-25T11:00:30;6.85;;;1.08;;
80400;SDS011;69727;53.132;8.230;2024-03-25T11:02:58;6.07;;;1.33;;
80400;SDS011;69727;53.132;8.230;2024-03-25T11:05:24;6.10;;;1.40;;
80400;SDS011;69727;53.132;8.230;2024-03-25T11:07:50;6.18;;;1.75;;
80400;SDS011;69727;53.132;8.230;2024-03-25T11:10:16;9.88;;;1.40;;
80400;SDS011;69727;53.132;8.230;2024-03-25T11:12:41;7.37;;;1.17;;
80400;SDS011;69727;53.132;8.230;2024-03-25T11:15:08;4.85;;;1.10;;
80400;SDS011;69727;53.132;8.230;2024-03-25T11:17:34;5.25;;;1.30;;
80400;SDS011;69727;53.132;8.230;2024-03-25T11:22:33;5.05;;;1.25;;
80400;SDS011;69727;53.132;8.230;2024-03-25T11:25:04;5.37;;;1.13;;
80400;SDS011;69727;53.132;8.230;2024-03-25T11:27:36;4.65;;;1.00;;
80400;SDS011;69727;53.132;8.230;2024-03-25T11:30:02;5.30;;;2.03;;
80400;SDS011;69727;53.132;8.230;2024-03-25T11:32:40;4.93;;;1.17;;
80400;SDS011;69727;53.132;8.230;2024-03-25T11:35:08;4.55;;;1.00;;
80400;SDS011;69727;53.132;8.230;2024-03-25T11:37:39;4.30;;;0.90;;
80400;SDS011;69727;53.132;8.230;2024-03-25T11:40:05;8.05;;;1.17;;
80400;SDS011;69727;53.132;8.230;2024-03-25T11:42:32;3.72;;;1.20;;
80400;SDS011;69727;53.132;8.230;2024-03-25T11:44:59;5.60;;;1.30;;
80400;SDS011;69727;53.132;8.230;2024-03-25T11:47:25;4.05;;;0.90;;
80400;SDS011;69727;53.132;8.230;2024-03-25T11:49:51;5.95;;;1.30;;
80400;SDS011;69727;53.132;8.230;2024-03-25T11:52:17;5.35;;;1.55;;
80400;SDS011;69727;53.132;8.230;2024-03-25T11:54:42;4.90;;;1.15;;
80400;SDS011;69727;53.132;8.230;2024-03-25T11:57:07;3.97;;;1.20;;
80400;SDS011;69727;53.132;8.230;2024-03-25T11:59:33;9.70;;;1.90;;
80400;SDS011;69727;53.132;8.230;2024-03-25T12:01:59;5.15;;;1.00;;
80400;SDS011;69727;53.132;8.230;2024-03-25T12:04:24;3.30;;;1.10;;
80400;SDS011;69727;53.132;8.230;2024-03-25T12:06:54;3.67;;;1.02;;
80400;SDS011;69727;53.132;8.230;2024-03-25T12:09:22;4.53;;;0.98;;
80400;SDS011;69727;53.132;8.230;2024-03-25T12:12:06;4.53;;;0.80;;
80400;SDS011;69727;53.132;8.230;2024-03-25T12:14:32;5.32;;;1.00;;
80400;SDS011;69727;53.132;8.230;2024-03-25T12:16:58;5.05;;;0.98;;
80400;SDS011;69727;53.132;8.230;2024-03-25T12:19:24;5.75;;;1.38;;
80400;SDS011;69727;53.132;8.230;2024-03-25T12:21:50;6.72;;;1.10;;
80400;SDS011;69727;53.132;8.230;2024-03-25T12:24:15;5.70;;;1.13;;
80400;SDS011;69727;53.132;8.230;2024-03-25T12:26:41;3.08;;;0.80;;
80400;SDS011;69727;53.132;8.230;2024-03-25T12:29:06;4.07;;;0.75;;
80400;SDS011;69727;53.132;8.230;2024-03-25T12:31:32;3.38;;;1.02;;
80400;SDS011;69727;53.132;8.230;2024-03-25T12:33:58;5.43;;;1.45;;
80400;SDS011;69727;53.132;8.230;2024-03-25T12:36:23;7.00;;;1.02;;
80400;SDS011;69727;53.132;8.230;2024-03-25T12:38:55;5.47;;;1.30;;
80400;SDS011;69727;53.132;8.230;2024-03-25T12:41:22;4.15;;;1.13;;
80400;SDS011;69727;53.132;8.230;2024-03-25T12:43:49;5.80;;;1.20;;
80400;SDS011;69727;53.132;8.230;2024-03-25T12:46:15;8.50;;;1.38;;
80400;SDS011;69727;53.132;8.230;2024-03-25T12:48:41;7.38;;;1.52;;
80400;SDS011;69727;53.132;8.230;2024-03-25T12:51:11;4.57;;;1.42;;
80400;SDS011;69727;53.132;8.230;2024-03-25T12:53:38;5.25;;;1.50;;
80400;SDS011;69727;53.132;8.230;2024-03-25T12:56:04;7.22;;;1.30;;
80400;SDS011;69727;53.132;8.230;2024-03-25T12:58:29;7.20;;;2.17;;
80400;SDS011;69727;53.132;8.230;2024-03-25T13:00:54;6.97;;;1.37;;
80400;SDS011;69727;53.132;8.230;2024-03-25T13:03:20;8.40;;;1.27;;
80400;SDS011;69727;53.132;8.230;2024-03-25T13:05:46;6.47;;;1.40;;
80400;SDS011;69727;53.132;8.230;2024-03-25T13:08:11;3.42;;;1.00;;
80400;SDS011;69727;53.132;8.230;2024-03-25T13:10:37;7.70;;;1.80;;
80400;SDS011;69727;53.132;8.230;2024-03-25T13:13:03;3.70;;;1.20;;
80400;SDS011;69727;53.132;8.230;2024-03-25T13:15:30;4.97;;;1.23;;
80400;SDS011;69727;53.132;8.230;2024-03-25T13:17:56;3.53;;;0.90;;
80400;SDS011;69727;53.132;8.230;2024-03-25T13:20:21;4.75;;;1.25;;
80400;SDS011;69727;53.132;8.230;2024-03-25T13:22:48;4.97;;;1.02;;
80400;SDS011;69727;53.132;8.230;2024-03-25T13:25:14;5.18;;;1.23;;
80400;SDS011;69727;53.132;8.230;2024-03-25T13:27:39;5.80;;;1.10;;
80400;SDS011;69727;53.132;8.230;2024-03-25T13:30:05;5.32;;;1.00;;
80400;SDS011;69727;53.132;8.230;2024-03-25T13:32:31;2.55;;;1.02;;
80400;SDS011;69727;53.132;8.230;2024-03-25T13:34:57;4.13;;;1.40;;
80400;SDS011;69727;53.132;8.230;2024-03-25T13:37:22;6.47;;;1.10;;
80400;SDS011;69727;53.132;8.230;2024-03-25T13:39:48;5.93;;;1.35;;
80400;SDS011;69727;53.132;8.230;2024-03-25T13:42:15;5.43;;;1.30;;
80400;SDS011;69727;53.132;8.230;2024-03-25T13:44:41;6.13;;;1.20;;
80400;SDS011;69727;53.132;8.230;2024-03-25T13:47:06;8.48;;;1.30;;
80400;SDS011;69727;53.132;8.230;2024-03-25T13:49:33;5.60;;;1.33;;
80400;SDS011;69727;53.132;8.230;2024-03-25T13:51:59;5.25;;;1.30;;
80400;SDS011;69727;53.132;8.230;2024-03-25T13:54:26;6.10;;;1.35;;
80400;SDS011;69727;53.132;8.230;2024-03-25T13:56:52;5.95;;;1.25;;
80400;SDS011;69727;53.132;8.230;2024-03-25T13:59:17;4.68;;;1.20;;
80400;SDS011;69727;53.132;8.230;2024-03-25T14:01:42;5.30;;;1.20;;
80400;SDS011;69727;53.132;8.230;2024-03-25T14:04:08;3.20;;;1.00;;
80400;SDS011;69727;53.132;8.230;2024-03-25T14:06:33;6.95;;;1.08;;
80400;SDS011;69727;53.132;8.230;2024-03-25T14:09:02;1.48;;;0.65;;
80400;SDS011;69727;53.132;8.230;2024-03-25T14:11:31;4.05;;;0.85;;
80400;SDS011;69727;53.132;8.230;2024-03-25T14:13:56;1.60;;;0.60;;
80400;SDS011;69727;53.132;8.230;2024-03-25T14:16:22;1.77;;;0.63;;
80400;SDS011;69727;53.132;8.230;2024-03-25T14:18:47;2.28;;;0.60;;
80400;SDS011;69727;53.132;8.230;2024-03-25T14:21:13;4.03;;;0.73;;
80400;SDS011;69727;53.132;8.230;2024-03-25T14:23:38;2.20;;;0.73;;
80400;SDS011;69727;53.132;8.230;2024-03-25T14:26:08;1.80;;;0.60;;
80400;SDS011;69727;53.132;8.230;2024-03-25T14:28:34;2.65;;;0.90;;
80400;SDS011;69727;53.132;8.230;2024-03-25T14:30:59;4.53;;;0.85;;
80400;SDS011;69727;53.132;8.230;2024-03-25T14:33:25;3.93;;;0.90;;
80400;SDS011;69727;53.132;8.230;2024-03-25T14:35:50;3.25;;;0.90;;
80400;SDS011;69727;53.132;8.230;2024-03-25T14:38:16;3.58;;;0.80;;
80400;SDS011;69727;53.132;8.230;2024-03-25T14:40:41;2.70;;;1.00;;
80400;SDS011;69727;53.132;8.230;2024-03-25T14:43:09;3.67;;;1.00;;
80400;SDS011;69727;53.132;8.230;2024-03-25T14:45:34;5.27;;;1.80;;